Time;durP1;ratioP1;P1;durP2;ratioP2;P2;SDS_P1;SDS_P2;PMS_P1;PMS_P2;Temp;Humidity;BMP_temperature;BMP_pressure;BME280_temperature;BME280_humidity;BME280_pressure;Samples;Min_cycle;Max_cycle;Signal;HPM_P1;HPM_P2
2023/01/03 00:01:05;;;;;;;9.63;3.40;;;2.70;99.90;;;;;;5032113;28;20080;-73
2023/01/03 00:03:37;;;;;;;5.10;2.58;;;2.70;99.90;;;;;;5015128;28;20052;-73
2023/01/03 00:06:03;;;;;;;7.30;2.95;;;2.70;99.90;;;;;;5015002;28;20148;-73
2023/01/03 00:08:35;;;;;;;10.73;3.00;;;2.60;99.90;;;;;;5014528;28;20124;-73
2023/01/03 00:11:09;;;;;;;8.65;3.00;;;2.60;99.90;;;;;;5014950;28;20120;-73
2023/01/03 00:13:41;;;;;;;6.32;2.63;;;2.60;99.90;;;;;;5015172;28;20045;-73
2023/01/03 00:16:15;;;;;;;7.28;3.13;;;2.50;99.90;;;;;;5014363;28;20072;-73
2023/01/03 00:18:54;;;;;;;8.07;2.88;;;2.50;99.90;;;;;;5032526;28;20044;-73
2023/01/03 00:21:21;;;;;;;7.95;4.50;;;2.40;99.90;;;;;;5014147;28;20080;-73
2023/01/03 00:23:53;;;;;;;9.30;4.65;;;2.40;99.90;;;;;;5014760;28;20612;-72
2023/01/03 00:26:19;;;;;;;9.55;4.38;;;2.40;99.90;;;;;;4998392;28;20103;-73
2023/01/03 00:28:51;;;;;;;10.55;4.43;;;2.30;99.90;;;;;;5014014;28;20079;-73
2023/01/03 00:31:17;;;;;;;10.50;4.35;;;2.30;99.90;;;;;;5032416;28;20053;-73
2023/01/03 00:33:49;;;;;;;8.80;3.45;;;2.30;99.90;;;;;;5032200;28;20048;-72
2023/01/03 00:36:15;;;;;;;7.80;4.32;;;2.30;99.90;;;;;;5030611;28;20104;-72
2023/01/03 00:38:48;;;;;;;11.07;4.13;;;2.30;99.90;;;;;;5031099;28;20053;-72
2023/01/03 00:41:16;;;;;;;11.88;4.05;;;2.30;99.90;;;;;;4996817;28;20494;-72
2023/01/03 00:44:03;;;;;;;9.80;3.72;;;2.20;99.90;;;;;;4990047;28;20050;-72
2023/01/03 00:46:29;;;;;;;5.50;3.33;;;2.30;99.90;;;;;;4990079;28;20046;-72
2023/01/03 00:49:01;;;;;;;11.05;3.22;;;2.20;99.90;;;;;;4973600;28;20046;-72
2023/01/03 00:51:31;;;;;;;8.98;3.08;;;2.20;99.90;;;;;;4974513;28;20403;-72
2023/01/03 00:54:11;;;;;;;13.63;3.42;;;2.20;99.90;;;;;;4991999;28;20078;-72
2023/01/03 00:56:40;;;;;;;8.82;2.90;;;2.20;99.90;;;;;;4991106;28;20038;-72
2023/01/03 00:59:13;;;;;;;10.38;3.40;;;2.20;99.90;;;;;;4973998;28;20093;-72
2023/01/03 01:01:45;;;;;;;8.60;2.67;;;2.20;99.90;;;;;;4991552;28;20045;-72
2023/01/03 01:04:33;;;;;;;8.23;2.60;;;2.20;99.90;;;;;;4990769;28;20039;-72
2023/01/03 01:07:08;;;;;;;5.63;3.22;;;2.20;99.90;;;;;;4973876;28;20050;-72
2023/01/03 01:09:36;;;;;;;9.00;3.08;;;2.20;99.90;;;;;;4991302;28;20113;-72
2023/01/03 01:12:09;;;;;;;9.48;3.20;;;2.20;99.90;;;;;;4973165;28;20129;-72
2023/01/03 01:14:36;;;;;;;5.40;1.95;;;2.20;99.90;;;;;;4973864;28;20075;-73
2023/01/03 01:17:15;;;;;;;9.68;2.90;;;2.20;99.90;;;;;;4972871;28;20507;-73
2023/01/03 01:19:42;;;;;;;8.07;2.30;;;2.10;99.90;;;;;;4973883;28;20042;-72
2023/01/03 01:22:16;;;;;;;9.48;3.75;;;2.10;99.90;;;;;;4991159;28;20403;-72
2023/01/03 01:24:42;;;;;;;6.85;2.53;;;2.10;99.90;;;;;;4983089;28;20141;-72
2023/01/03 01:27:14;;;;;;;11.38;4.32;;;2.10;99.90;;;;;;4973640;28;20117;-72
2023/01/03 01:29:40;;;;;;;9.52;3.38;;;2.20;99.90;;;;;;4973487;28;20037;-72
2023/01/03 01:32:12;;;;;;;9.77;2.35;;;2.20;99.90;;;;;;4972977;28;20129;-72
2023/01/03 01:34:38;;;;;;;11.45;2.90;;;2.10;99.90;;;;;;4973156;28;20078;-72
2023/01/03 01:37:10;;;;;;;5.25;2.60;;;2.20;99.90;;;;;;4973165;28;20474;-72
2023/01/03 01:39:36;;;;;;;8.27;2.28;;;2.20;99.90;;;;;;4990188;28;20125;-72
2023/01/03 01:45:13;;;;;;;7.72;2.22;;;2.20;99.90;;;;;;5002432;28;20059;-72
2023/01/03 01:47:58;;;;;;;6.78;2.47;;;2.20;99.90;;;;;;5008561;28;20037;-73
2023/01/03 01:50:24;;;;;;;7.45;2.40;;;2.20;99.90;;;;;;5009949;28;20052;-73
2023/01/03 01:53:24;;;;;;;7.78;2.40;;;2.10;99.90;;;;;;5008340;28;20034;-72
2023/01/03 01:56:00;;;;;;;7.70;2.95;;;2.10;99.90;;;;;;5009593;28;20038;-72
2023/01/03 01:58:36;;;;;;;6.03;2.35;;;2.10;99.90;;;;;;5008935;28;20121;-72
2023/01/03 02:01:05;;;;;;;9.55;2.35;;;2.10;99.90;;;;;;5005341;28;20033;-72
2023/01/03 02:03:37;;;;;;;11.65;2.75;;;2.10;99.90;;;;;;5006619;28;20077;-72
2023/01/03 02:06:07;;;;;;;12.35;2.88;;;2.10;99.90;;;;;;5009751;28;20094;-72
2023/01/03 02:08:39;;;;;;;6.47;2.72;;;2.00;99.90;;;;;;5008619;28;20042;-72
2023/01/03 02:15:04;;;;;;;10.43;3.53;;;2.00;99.90;;;;;;4948573;29;20051;-72
2023/01/03 02:17:55;;;;;;;7.43;3.80;;;2.00;99.90;;;;;;4949037;29;20047;-72
2023/01/03 02:20:58;;;;;;;8.35;3.20;;;2.00;99.90;;;;;;4931536;29;20567;-72
2023/01/03 02:23:39;;;;;;;6.70;3.00;;;2.00;99.90;;;;;;4932892;29;20047;-72
2023/01/03 02:26:23;;;;;;;8.10;3.50;;;1.90;99.90;;;;;;4948996;29;20074;-72
2023/01/03 02:29:24;;;;;;;8.32;3.08;;;1.90;99.90;;;;;;4941852;29;20474;-72
2023/01/03 02:32:32;;;;;;;11.75;4.53;;;1.90;99.90;;;;;;4939795;29;20062;-73
2023/01/03 02:35:15;;;;;;;12.05;5.07;;;1.90;99.90;;;;;;4948161;29;20553;-73
2023/01/03 02:38:04;;;;;;;14.50;5.15;;;1.90;99.90;;;;;;4948854;29;20102;-73
2023/01/03 02:40:52;;;;;;;10.23;5.70;;;1.90;99.90;;;;;;4948727;29;20039;-73
2023/01/03 02:43:37;;;;;;;15.60;6.35;;;1.90;99.90;;;;;;4933106;28;20134;-72
2023/01/03 02:46:31;;;;;;;15.98;6.88;;;1.90;99.90;;;;;;4934418;29;20121;-72
2023/01/03 02:49:12;;;;;;;15.88;7.28;;;1.90;99.90;;;;;;4999881;28;20133;-73
2023/01/03 02:51:47;;;;;;;17.45;8.10;;;2.00;99.90;;;;;;5001171;28;20307;-73
2023/01/03 02:54:30;;;;;;;17.80;9.07;;;2.10;99.90;;;;;;4992516;28;20595;-73
2023/01/03 02:57:29;;;;;;;20.88;9.75;;;2.10;99.90;;;;;;5012716;28;20074;-73
2023/01/03 03:00:08;;;;;;;24.42;10.20;;;2.20;99.90;;;;;;4972852;28;20065;-73
2023/01/03 03:02:44;;;;;;;23.75;10.60;;;2.30;99.90;;;;;;5012288;28;20038;-73
2023/01/03 03:05:18;;;;;;;24.80;11.85;;;2.30;99.90;;;;;;4995863;28;20042;-72
2023/01/03 03:07:50;;;;;;;23.33;10.90;;;2.40;99.90;;;;;;5013072;28;20050;-72
2023/01/03 03:13:15;;;;;;;21.17;11.40;;;2.50;99.90;;;;;;5012992;28;20056;-73
2023/01/03 03:16:04;;;;;;;34.33;14.40;;;2.50;99.90;;;;;;4979139;28;20410;-73
2023/01/03 03:18:56;;;;;;;29.75;13.05;;;2.60;99.90;;;;;;4995297;28;20049;-73
2023/01/03 03:30:13;;;;;;;25.73;11.48;;;2.60;99.90;;;;;;4993373;28;20546;-74
2023/01/03 03:32:54;;;;;;;23.13;11.52;;;2.60;99.90;;;;;;5012651;28;20081;-74
2023/01/03 03:35:23;;;;;;;21.02;11.52;;;2.50;99.90;;;;;;5012343;28;20042;-74
2023/01/03 03:38:00;;;;;;;22.55;11.43;;;2.50;99.90;;;;;;4978369;28;20096;-73
2023/01/03 03:46:48;;;;;;;24.15;12.30;;;2.50;99.90;;;;;;5013310;28;20056;-74
2023/01/03 03:49:37;;;;;;;24.98;12.27;;;2.50;99.90;;;;;;5013332;28;20137;-74
2023/01/03 03:52:14;;;;;;;23.83;12.40;;;2.40;99.90;;;;;;5012691;28;20053;-74
2023/01/03 03:54:46;;;;;;;27.40;13.02;;;2.50;99.90;;;;;;4995806;28;20057;-74
2023/01/03 03:57:37;;;;;;;28.58;13.13;;;2.40;99.90;;;;;;4994946;28;20105;-74
2023/01/03 04:00:25;;;;;;;28.75;13.93;;;2.40;99.90;;;;;;5012595;28;20049;-74
2023/01/03 04:03:00;;;;;;;34.92;14.45;;;2.40;99.90;;;;;;5013059;28;20037;-74
2023/01/03 04:05:31;;;;;;;28.35;12.85;;;2.40;99.90;;;;;;5012906;28;20041;-75
2023/01/03 04:08:03;;;;;;;28.20;12.75;;;2.40;99.90;;;;;;4995386;28;20046;-74
2023/01/03 04:10:29;;;;;;;27.67;13.68;;;2.40;99.90;;;;;;4995646;28;20453;-74
2023/01/03 04:13:09;;;;;;;33.20;14.35;;;2.50;99.90;;;;;;5012542;28;20099;-74
2023/01/03 04:15:35;;;;;;;27.33;12.98;;;2.50;99.90;;;;;;5012931;28;20080;-74
2023/01/03 04:18:07;;;;;;;23.52;12.15;;;2.50;99.90;;;;;;5013045;28;20065;-75
2023/01/03 04:20:33;;;;;;;26.33;14.02;;;2.60;99.90;;;;;;5012230;28;20046;-75
2023/01/03 04:23:05;;;;;;;29.75;14.05;;;2.70;99.90;;;;;;4995222;28;20434;-75
2023/01/03 04:25:31;;;;;;;22.25;13.10;;;2.70;99.90;;;;;;4994372;28;20138;-74
2023/01/03 04:28:03;;;;;;;26.80;13.40;;;2.80;99.90;;;;;;4994505;28;20132;-75
2023/01/03 04:30:29;;;;;;;28.10;14.32;;;2.80;99.90;;;;;;4994028;28;20081;-75
2023/01/03 04:33:05;;;;;;;26.55;13.90;;;2.80;99.90;;;;;;5010601;28;20074;-75
2023/01/03 04:35:31;;;;;;;27.08;13.90;;;2.80;99.90;;;;;;4977803;28;20049;-74
2023/01/03 04:38:10;;;;;;;22.13;11.75;;;2.90;99.90;;;;;;4994812;28;20041;-75
2023/01/03 04:40:39;;;;;;;27.92;13.98;;;2.90;99.90;;;;;;4994260;28;20041;-75
2023/01/03 04:46:09;;;;;;;34.85;15.13;;;2.80;99.90;;;;;;4992786;28;20430;-71
2023/01/03 04:48:41;;;;;;;20.85;11.50;;;2.80;99.90;;;;;;4974502;28;20133;-71
2023/01/03 04:51:09;;;;;;;29.80;13.88;;;2.80;99.90;;;;;;4975319;28;20077;-71
2023/01/03 04:53:42;;;;;;;26.80;13.63;;;2.80;99.90;;;;;;4975472;28;20049;-75
2023/01/03 04:56:08;;;;;;;24.75;14.38;;;2.80;99.90;;;;;;4974474;28;20057;-75
2023/01/03 04:58:40;;;;;;;28.95;14.30;;;2.80;99.90;;;;;;4958728;28;20038;-75
2023/01/03 05:01:06;;;;;;;28.58;14.48;;;2.80;99.90;;;;;;4974249;28;20042;-75
2023/01/03 05:03:39;;;;;;;31.77;13.43;;;2.70;99.90;;;;;;4974547;28;20125;-75
2023/01/03 05:06:12;;;;;;;27.60;13.25;;;2.70;99.90;;;;;;4992153;28;20394;-75
2023/01/03 05:08:45;;;;;;;24.77;12.65;;;2.70;99.90;;;;;;4957325;28;20046;-75
2023/01/03 05:11:11;;;;;;;29.40;13.95;;;2.60;99.90;;;;;;4958733;28;20042;-75
2023/01/03 05:13:43;;;;;;;28.15;14.43;;;2.60;99.90;;;;;;4974973;28;20042;-75
2023/01/03 05:16:12;;;;;;;25.70;14.38;;;2.60;99.90;;;;;;4991479;28;20380;-75
2023/01/03 05:18:45;;;;;;;35.58;16.65;;;2.60;99.90;;;;;;4992323;28;20375;-75
2023/01/03 05:26:51;;;;;;;30.38;14.90;;;2.40;99.90;;;;;;4975479;28;20096;-77
2023/01/03 05:29:26;;;;;;;29.73;14.93;;;2.40;99.90;;;;;;4994370;28;20139;-74
2023/01/03 05:31:52;;;;;;;29.67;15.60;;;2.30;99.90;;;;;;4991954;28;20038;-74
2023/01/03 05:34:24;;;;;;;33.67;15.63;;;2.30;99.90;;;;;;4993168;28;20049;-75
2023/01/03 05:36:50;;;;;;;30.00;16.73;;;2.20;99.90;;;;;;4973863;28;20418;-75
2023/01/03 05:39:29;;;;;;;31.42;15.50;;;2.20;99.90;;;;;;4991628;28;20038;-74
2023/01/03 05:41:58;;;;;;;31.58;17.40;;;2.20;99.90;;;;;;4974335;28;20046;-74
2023/01/03 05:44:36;;;;;;;30.27;17.17;;;2.20;99.90;;;;;;4987056;28;20057;-74
2023/01/03 05:47:22;;;;;;;33.33;17.60;;;2.20;99.90;;;;;;4995236;28;20053;-73
2023/01/03 05:49:48;;;;;;;36.65;18.30;;;2.20;99.90;;;;;;4993694;28;20482;-74
2023/01/03 05:52:21;;;;;;;32.03;18.40;;;2.10;99.90;;;;;;4992864;28;20045;-75
2023/01/03 05:54:47;;;;;;;33.40;17.85;;;2.20;99.90;;;;;;5011054;28;20498;-75
2023/01/03 05:57:19;;;;;;;33.45;17.35;;;2.20;99.90;;;;;;5010231;28;20168;-75
2023/01/03 05:59:45;;;;;;;32.95;18.33;;;2.10;99.90;;;;;;5011140;28;20042;-75
2023/01/03 06:02:17;;;;;;;30.92;17.05;;;2.10;99.90;;;;;;5010974;28;20049;-75
2023/01/03 06:04:50;;;;;;;33.17;17.00;;;2.00;99.90;;;;;;4992784;28;20116;-75
2023/01/03 06:07:22;;;;;;;32.38;18.83;;;2.00;99.90;;;;;;4993495;28;20509;-75
2023/01/03 06:09:48;;;;;;;28.17;15.43;;;2.00;99.90;;;;;;4993472;28;20423;-75
2023/01/03 06:12:20;;;;;;;35.83;17.05;;;2.00;99.90;;;;;;4992887;28;20080;-75
2023/01/03 06:14:46;;;;;;;31.42;16.58;;;2.00;99.90;;;;;;4993612;28;20120;-75
2023/01/03 06:20:03;;;;;;;31.05;17.17;;;2.10;99.90;;;;;;5010327;28;20461;-75
2023/01/03 06:22:35;;;;;;;30.70;15.75;;;2.10;99.90;;;;;;4993071;28;20041;-75
2023/01/03 06:25:01;;;;;;;37.80;17.45;;;2.10;99.90;;;;;;4992592;28;20100;-75
2023/01/03 06:27:34;;;;;;;33.70;17.27;;;2.10;99.90;;;;;;4993418;28;20034;-75
2023/01/03 06:30:00;;;;;;;31.15;17.27;;;2.10;99.90;;;;;;4993063;28;20042;-75
2023/01/03 06:32:32;;;;;;;29.75;17.23;;;2.10;99.90;;;;;;5009142;28;20053;-75
2023/01/03 06:34:58;;;;;;;32.45;16.33;;;2.00;99.90;;;;;;5009555;28;20073;-75
2023/01/03 06:37:30;;;;;;;26.77;16.48;;;2.00;99.90;;;;;;4992802;28;20080;-75
2023/01/03 06:39:56;;;;;;;30.92;18.23;;;1.90;99.90;;;;;;4992448;28;20049;-75
2023/01/03 06:42:42;;;;;;;29.33;16.52;;;1.90;99.90;;;;;;5011282;28;20037;-75
2023/01/03 06:53:54;;;;;;;31.50;17.00;;;2.00;99.90;;;;;;4972797;28;20056;-75
2023/01/03 06:56:21;;;;;;;32.20;15.75;;;2.00;99.90;;;;;;4973396;28;20042;-75
2023/01/03 06:58:54;;;;;;;29.48;16.65;;;2.00;99.90;;;;;;4990848;28;20038;-75
2023/01/03 07:01:21;;;;;;;34.03;18.52;;;2.00;99.90;;;;;;4956592;28;20047;-75
2023/01/03 07:03:53;;;;;;;28.65;16.38;;;2.00;99.90;;;;;;4973280;28;20038;-75
2023/01/03 07:06:19;;;;;;;37.15;18.50;;;2.00;99.90;;;;;;4973325;28;20042;-75
2023/01/03 07:08:51;;;;;;;34.88;19.38;;;2.10;99.90;;;;;;4972509;28;20134;-75
2023/01/03 07:11:17;;;;;;;30.00;17.45;;;2.10;99.90;;;;;;4990693;28;20046;-75
2023/01/03 07:13:58;;;;;;;31.55;17.77;;;2.10;99.90;;;;;;4973248;28;20052;-75
2023/01/03 07:16:30;;;;;;;32.47;16.90;;;2.10;99.90;;;;;;4973501;28;20061;-75
2023/01/03 07:19:03;;;;;;;21.52;11.27;;;2.00;99.90;;;;;;4990662;28;20074;-74
2023/01/03 07:21:31;;;;;;;28.33;15.65;;;2.00;99.90;;;;;;4972665;28;20034;-74
2023/01/03 07:24:05;;;;;;;23.38;13.77;;;2.10;99.90;;;;;;4990656;28;20388;-73
2023/01/03 07:26:32;;;;;;;31.42;15.95;;;2.20;99.90;;;;;;4990856;28;20082;-74
2023/01/03 07:29:06;;;;;;;33.70;17.70;;;2.20;99.90;;;;;;4972530;28;20049;-76
2023/01/03 07:31:33;;;;;;;37.03;19.52;;;2.20;99.90;;;;;;4991055;28;20089;-73
2023/01/03 07:34:06;;;;;;;39.00;17.95;;;2.10;99.90;;;;;;4994270;28;20125;-75
2023/01/03 07:36:32;;;;;;;40.45;15.32;;;2.10;99.90;;;;;;4993662;28;20046;-75
2023/01/03 07:39:04;;;;;;;180.57;35.70;;;2.10;99.90;;;;;;4994399;28;20049;-76
2023/01/03 07:44:44;;;;;;;85.57;16.48;;;2.00;99.90;;;;;;4938044;28;20091;-76
2023/01/03 07:47:23;;;;;;;115.03;24.15;;;1.80;99.90;;;;;;4937082;29;20141;-76
2023/01/03 07:49:49;;;;;;;68.63;14.15;;;1.80;99.90;;;;;;4936248;29;20058;-76
2023/01/03 07:52:21;;;;;;;81.25;17.73;;;1.70;99.90;;;;;;4952761;29;20051;-76
2023/01/03 07:54:47;;;;;;;111.35;20.83;;;1.60;99.90;;;;;;4936667;29;20125;-74
2023/01/03 07:57:20;;;;;;;67.93;18.45;;;1.60;99.90;;;;;;4951942;29;20127;-74
2023/01/03 07:59:46;;;;;;;153.43;29.48;;;1.60;99.90;;;;;;4952580;29;20508;-77
2023/01/03 08:02:19;;;;;;;213.82;38.00;;;1.60;99.90;;;;;;4952738;29;20039;-79
2023/01/03 08:04:45;;;;;;;243.60;41.65;;;1.60;99.90;;;;;;4935989;29;20575;-79
2023/01/03 08:07:17;;;;;;;217.68;38.15;;;1.60;99.90;;;;;;4952765;29;20059;-79
2023/01/03 08:15:18;;;;;;;333.40;49.50;;;1.80;99.90;;;;;;4936622;29;20047;-78
2023/01/03 08:17:50;;;;;;;352.88;51.38;;;1.90;99.90;;;;;;4943297;28;20051;-79
2023/01/03 08:20:23;;;;;;;319.58;47.85;;;2.00;99.90;;;;;;4976164;28;20038;-79
2023/01/03 08:22:55;;;;;;;365.25;59.28;;;2.10;99.90;;;;;;4974785;28;20042;-79
2023/01/03 08:25:21;;;;;;;353.65;57.17;;;2.10;99.90;;;;;;4992698;28;20042;-79
2023/01/03 08:27:53;;;;;;;329.92;51.17;;;2.20;99.90;;;;;;4975849;28;20049;-79
2023/01/03 08:30:19;;;;;;;408.40;61.15;;;2.30;99.90;;;;;;4975683;28;20050;-79
2023/01/03 08:32:51;;;;;;;333.17;50.08;;;2.40;99.90;;;;;;4975007;28;20053;-78
2023/01/03 08:35:18;;;;;;;343.42;51.28;;;2.40;99.90;;;;;;4975568;28;20057;-77
2023/01/03 08:37:53;;;;;;;416.50;60.03;;;2.50;99.90;;;;;;4992876;28;20054;-78
2023/01/03 08:40:19;;;;;;;446.52;63.38;;;2.50;99.90;;;;;;4993216;28;20202;-78
2023/01/03 08:42:52;;;;;;;387.85;59.28;;;2.60;99.90;;;;;;4962591;28;20038;-78
2023/01/03 08:45:32;;;;;;;320.65;51.60;;;2.70;99.90;;;;;;5011735;28;20037;-78
2023/01/03 08:48:08;;;;;;;530.40;77.22;;;2.70;99.90;;;;;;4994856;28;20074;-78
2023/01/03 08:50:35;;;;;;;410.42;60.00;;;2.80;99.90;;;;;;5012453;28;20042;-77
2023/01/03 08:53:07;;;;;;;565.78;77.68;;;2.90;99.90;;;;;;4998414;28;20034;-77
2023/01/03 08:55:33;;;;;;;513.47;74.00;;;3.00;99.90;;;;;;4998583;28;20052;-78
2023/01/03 08:58:08;;;;;;;466.25;81.88;;;3.10;99.90;;;;;;5016844;28;20038;-78
2023/01/03 09:00:35;;;;;;;500.05;80.53;;;3.10;99.90;;;;;;5016040;28;20522;-78
2023/01/03 09:03:14;;;;;;;395.40;62.80;;;3.20;99.90;;;;;;4999678;28;20411;-75
2023/01/03 09:05:40;;;;;;;470.00;72.88;;;3.30;99.90;;;;;;4999046;28;20120;-76
2023/01/03 09:08:12;;;;;;;404.15;64.72;;;3.40;99.90;;;;;;4998325;28;20080;-78
2023/01/03 09:10:39;;;;;;;364.23;60.33;;;3.50;99.90;;;;;;4998964;28;20042;-76
2023/01/03 09:13:12;;;;;;;371.52;62.65;;;3.60;99.90;;;;;;4997630;28;20046;-77
2023/01/03 09:15:37;;;;;;;335.15;59.15;;;3.70;99.90;;;;;;5016151;28;20134;-78
2023/01/03 09:18:09;;;;;;;373.88;68.97;;;3.80;99.90;;;;;;4997870;28;20046;-77
2023/01/03 09:20:35;;;;;;;311.23;63.30;;;3.80;99.90;;;;;;4997893;28;20046;-76
2023/01/03 09:23:07;;;;;;;346.48;66.28;;;3.90;99.90;;;;;;5015843;28;20120;-76
2023/01/03 09:25:33;;;;;;;241.45;57.90;;;4.00;99.90;;;;;;5015426;28;20038;-76
2023/01/03 09:28:05;;;;;;;248.15;60.25;;;4.00;99.90;;;;;;4997561;28;20042;-76
2023/01/03 09:30:31;;;;;;;205.98;57.63;;;4.10;99.90;;;;;;4998079;28;20116;-78
2023/01/03 09:33:04;;;;;;;250.40;64.13;;;4.20;99.90;;;;;;5012747;28;20065;-72
2023/01/03 09:35:39;;;;;;;203.18;56.00;;;4.20;99.90;;;;;;4993360;28;20415;-71
2023/01/03 09:38:11;;;;;;;188.73;55.83;;;4.30;99.90;;;;;;4977746;28;20189;-70
2023/01/03 09:40:45;;;;;;;189.70;56.58;;;4.40;99.90;;;;;;4993951;28;20089;-71
2023/01/03 09:43:24;;;;;;;181.50;55.63;;;4.40;99.90;;;;;;4994577;28;20054;-72
2023/01/03 09:46:05;;;;;;;142.52;49.65;;;4.50;99.90;;;;;;4994347;28;20466;-71
2023/01/03 09:48:43;;;;;;;158.63;53.45;;;4.60;99.90;;;;;;5011052;28;20099;-71
2023/01/03 10:05:46;;;;;;;150.45;52.55;;;4.90;99.90;;;;;;5015811;28;20478;-75
2023/01/03 10:08:18;;;;;;;129.90;49.72;;;4.90;99.90;;;;;;4996904;28;20415;-71
2023/01/03 10:11:08;;;;;;;136.73;49.08;;;5.00;99.90;;;;;;5008654;28;20038;-70
2023/01/03 10:14:10;;;;;;;132.02;48.95;;;5.00;99.90;;;;;;4997588;28;20049;-70
2023/01/03 10:20:10;;;;;;;116.88;42.10;;;5.10;99.90;;;;;;4991024;28;20053;-70
2023/01/03 10:22:44;;;;;;;110.03;45.47;;;5.40;99.90;;;;;;4989638;28;20042;-75
2023/01/03 10:25:20;;;;;;;104.47;43.28;;;5.50;99.90;;;;;;4986450;28;20034;-74
2023/01/03 10:28:09;;;;;;;95.93;39.33;;;5.60;99.90;;;;;;4970900;28;20112;-74
2023/01/03 10:31:12;;;;;;;95.85;40.88;;;5.70;99.90;;;;;;4952167;28;20128;-75
2023/01/03 10:33:53;;;;;;;90.55;38.88;;;5.70;99.90;;;;;;4950026;28;20084;-75
2023/01/03 10:36:20;;;;;;;95.60;40.70;;;5.70;99.90;;;;;;4957286;28;20034;-75
2023/01/03 10:38:53;;;;;;;91.55;39.90;;;5.70;99.90;;;;;;4988860;28;20042;-74
2023/01/03 10:41:29;;;;;;;83.43;37.30;;;5.70;99.90;;;;;;4969745;28;20039;-75
2023/01/03 10:44:09;;;;;;;82.35;36.85;;;5.80;99.90;;;;;;4978384;28;20080;-74
2023/01/03 10:46:52;;;;;;;79.55;34.72;;;5.80;99.90;;;;;;4991140;28;20072;-71
2023/01/03 10:49:29;;;;;;;73.90;31.13;;;5.90;99.90;;;;;;5007564;28;20030;-71
2023/01/03 10:52:24;;;;;;;72.05;32.20;;;5.90;99.90;;;;;;5008391;28;20042;-71
2023/01/03 10:54:58;;;;;;;60.63;31.02;;;5.90;99.90;;;;;;4991436;28;20045;-71
2023/01/03 10:57:42;;;;;;;60.47;27.90;;;5.90;99.90;;;;;;4988842;28;20042;-70
2023/01/03 11:00:26;;;;;;;57.13;29.60;;;6.00;99.90;;;;;;4989375;28;20056;-72
2023/01/03 11:03:01;;;;;;;66.05;31.10;;;6.00;99.90;;;;;;5007657;28;20066;-70
2023/01/03 11:05:27;;;;;;;57.75;27.58;;;6.00;99.90;;;;;;4991084;28;20037;-71
2023/01/03 11:08:06;;;;;;;47.00;25.33;;;6.00;99.90;;;;;;4995821;28;20556;-70
2023/01/03 11:10:57;;;;;;;54.72;27.48;;;6.00;99.90;;;;;;4996620;28;20401;-70
2023/01/03 11:13:44;;;;;;;48.40;23.45;;;6.00;99.90;;;;;;4994505;28;20116;-71
2023/01/03 11:16:18;;;;;;;51.13;24.10;;;6.10;99.90;;;;;;5011188;28;20053;-72
2023/01/03 11:19:08;;;;;;;47.35;25.23;;;6.10;99.90;;;;;;4995465;28;20100;-69
2023/01/03 11:21:37;;;;;;;47.28;23.75;;;6.10;99.90;;;;;;4994895;28;20053;-69
2023/01/03 11:24:43;;;;;;;44.70;23.67;;;6.20;99.90;;;;;;4995309;28;20055;-70
2023/01/03 11:27:21;;;;;;;39.20;18.73;;;6.30;99.90;;;;;;4994157;28;20060;-69
2023/01/03 11:30:09;;;;;;;41.22;20.52;;;6.30;99.90;;;;;;4996308;28;20037;-68
2023/01/03 11:33:13;;;;;;;40.15;19.65;;;6.30;99.90;;;;;;4975164;28;20060;-69
2023/01/03 11:39:35;;;;;;;33.83;17.00;;;6.40;99.90;;;;;;5027560;28;20414;-70
2023/01/03 11:42:19;;;;;;;42.65;20.85;;;6.40;99.90;;;;;;5032248;28;20557;-68
2023/01/03 11:44:57;;;;;;;44.67;19.73;;;6.40;99.90;;;;;;5026002;28;20080;-72
2023/01/03 11:48:01;;;;;;;38.78;19.73;;;6.40;99.90;;;;;;5028798;28;20048;-72
2023/01/03 11:50:52;;;;;;;26.05;14.93;;;6.40;99.90;;;;;;5031766;28;20050;-72
2023/01/03 11:56:56;;;;;;;32.65;17.63;;;6.50;99.90;;;;;;5006862;28;20130;-72
2023/01/03 11:59:56;;;;;;;29.50;15.55;;;6.50;99.90;;;;;;5012348;28;20049;-71
2023/01/03 12:02:37;;;;;;;33.20;17.67;;;6.60;99.90;;;;;;5031407;28;20124;-74
2023/01/03 12:05:15;;;;;;;35.28;17.15;;;6.50;99.90;;;;;;5031936;28;20041;-72
2023/01/03 12:08:02;;;;;;;36.78;16.95;;;6.60;99.90;;;;;;5014112;28;20563;-72
2023/01/03 12:10:46;;;;;;;40.35;20.20;;;6.60;99.90;;;;;;5012829;28;20050;-72
2023/01/03 12:16:44;;;;;;;38.35;20.70;;;6.60;99.90;;;;;;5031274;28;20053;-71
2023/01/03 12:20:02;;;;;;;37.20;19.45;;;6.60;99.90;;;;;;5031530;28;20131;-71
2023/01/03 12:22:40;;;;;;;32.55;16.52;;;6.70;99.90;;;;;;5030951;28;20041;-71
2023/01/03 12:25:21;;;;;;;39.53;20.50;;;6.70;99.90;;;;;;5031512;28;20045;-70
2023/01/03 12:27:59;;;;;;;36.33;19.02;;;6.70;99.90;;;;;;5012383;28;20493;-69
2023/01/03 12:30:59;;;;;;;33.97;16.95;;;6.70;99.90;;;;;;4996417;28;20064;-70
2023/01/03 12:33:41;;;;;;;31.77;15.13;;;6.80;99.90;;;;;;4971989;28;20389;-70
2023/01/03 12:36:13;;;;;;;31.80;16.73;;;6.80;99.90;;;;;;5012570;28;20045;-70
2023/01/03 12:38:50;;;;;;;34.67;18.17;;;6.80;99.90;;;;;;5013030;28;20041;-70
2023/01/03 12:41:51;;;;;;;32.15;16.05;;;6.90;99.90;;;;;;5031583;28;20401;-70
2023/01/03 12:44:31;;;;;;;38.83;16.90;;;6.90;99.90;;;;;;4984955;28;20176;-69
2023/01/03 12:47:07;;;;;;;28.85;13.27;;;7.00;99.90;;;;;;5031084;28;20048;-71
2023/01/03 12:50:06;;;;;;;32.88;15.32;;;7.00;99.90;;;;;;5029035;28;20048;-71
2023/01/03 12:52:40;;;;;;;39.10;16.75;;;7.10;99.90;;;;;;5029551;28;20041;-71
2023/01/03 12:55:23;;;;;;;33.42;16.65;;;7.10;99.90;;;;;;5013255;28;20037;-72
2023/01/03 12:58:35;;;;;;;43.22;18.63;;;7.20;99.90;;;;;;4993781;28;20131;-71
2023/01/03 13:01:16;;;;;;;38.10;17.17;;;7.20;99.90;;;;;;5029218;28;20044;-72
2023/01/03 13:04:02;;;;;;;25.63;14.48;;;7.20;99.90;;;;;;5012698;28;20033;-71
2023/01/03 13:06:33;;;;;;;36.28;18.70;;;7.20;99.90;;;;;;5013124;28;20080;-72
2023/01/03 13:09:30;;;;;;;39.28;20.02;;;7.20;99.90;;;;;;5012341;28;20052;-72
2023/01/03 13:12:12;;;;;;;29.88;17.08;;;7.20;99.90;;;;;;5011620;28;20562;-72
2023/01/03 13:14:53;;;;;;;32.35;15.77;;;7.20;99.90;;;;;;5012543;28;20543;-72
2023/01/03 13:17:30;;;;;;;33.17;16.92;;;7.20;99.90;;;;;;4994673;28;20042;-72
2023/01/03 13:20:17;;;;;;;28.17;14.02;;;7.20;99.90;;;;;;5029411;28;20480;-72
2023/01/03 13:23:32;;;;;;;24.95;13.13;;;7.20;99.90;;;;;;5014240;28;20067;-71
2023/01/03 13:26:04;;;;;;;25.63;13.07;;;7.30;99.90;;;;;;4997124;28;20037;-72
2023/01/03 13:28:46;;;;;;;34.80;15.85;;;7.30;99.90;;;;;;5012435;28;20043;-72
2023/01/03 13:31:18;;;;;;;29.75;13.85;;;7.30;99.90;;;;;;5011609;28;20096;-72
2023/01/03 13:34:37;;;;;;;31.25;16.55;;;7.30;99.90;;;;;;5029247;28;20433;-72
2023/01/03 13:37:16;;;;;;;32.05;18.88;;;7.30;99.90;;;;;;4931491;29;20047;-72
2023/01/03 13:39:42;;;;;;;35.17;18.15;;;7.30;99.90;;;;;;4932780;29;20054;-73
2023/01/03 13:42:34;;;;;;;32.25;17.52;;;7.30;99.90;;;;;;4950652;28;20047;-72
2023/01/03 13:45:35;;;;;;;32.83;16.80;;;7.30;99.90;;;;;;4949710;28;20050;-72
2023/01/03 13:48:29;;;;;;;34.72;17.13;;;7.40;99.90;;;;;;4928819;29;20051;-71
2023/01/03 13:51:23;;;;;;;35.03;19.02;;;7.40;99.90;;;;;;4930782;29;20504;-72
2023/01/03 13:54:05;;;;;;;39.25;19.63;;;7.40;99.90;;;;;;4914936;29;20237;-72
2023/01/03 13:56:43;;;;;;;27.30;14.98;;;7.40;99.90;;;;;;4930573;29;20044;-68
2023/01/03 13:59:21;;;;;;;36.85;18.15;;;7.40;99.90;;;;;;4913357;29;20051;-73
2023/01/03 14:01:47;;;;;;;32.13;16.70;;;7.50;99.90;;;;;;4911702;29;20075;-73
2023/01/03 14:04:40;;;;;;;27.77;16.45;;;7.50;99.90;;;;;;4912224;29;20070;-73
2023/01/03 14:07:21;;;;;;;35.22;17.17;;;7.50;99.90;;;;;;4941484;28;20045;-73
2023/01/03 14:09:50;;;;;;;34.92;18.35;;;7.60;99.90;;;;;;4971571;28;20129;-73
2023/01/03 14:13:00;;;;;;;27.95;16.30;;;7.60;99.90;;;;;;4976634;28;20218;-73
2023/01/03 14:15:30;;;;;;;34.65;16.30;;;7.60;99.90;;;;;;4988477;28;20042;-73
2023/01/03 14:18:25;;;;;;;27.00;16.65;;;7.60;99.90;;;;;;4988713;28;20038;-73
2023/01/03 14:20:53;;;;;;;35.58;17.95;;;7.70;99.90;;;;;;4970632;28;20041;-73
2023/01/03 14:23:28;;;;;;;32.28;17.88;;;7.70;99.90;;;;;;4971856;28;20085;-73
2023/01/03 14:26:05;;;;;;;24.40;15.98;;;7.70;99.90;;;;;;4990059;28;20057;-74
2023/01/03 14:28:39;;;;;;;28.10;15.70;;;7.70;99.90;;;;;;4989913;28;20042;-73
2023/01/03 14:31:14;;;;;;;31.15;15.73;;;7.70;99.90;;;;;;4990519;28;20038;-73
2023/01/03 14:33:52;;;;;;;27.40;14.82;;;7.70;99.90;;;;;;4971634;28;20523;-73
2023/01/03 14:36:18;;;;;;;29.85;16.00;;;7.70;99.90;;;;;;4989358;28;20042;-73
2023/01/03 14:42:22;;;;;;;30.17;15.68;;;7.80;99.90;;;;;;4973649;28;20106;-72
2023/01/03 14:44:56;;;;;;;28.83;16.15;;;7.80;99.90;;;;;;4985400;28;20057;-72
2023/01/03 14:47:48;;;;;;;26.98;14.15;;;7.80;99.90;;;;;;4962017;28;20578;-72
2023/01/03 14:50:23;;;;;;;25.98;14.63;;;7.80;99.90;;;;;;4994795;28;20113;-71